createdAt,value
2023-05-11T00:02:22.335Z,0.10
2023-05-11T00:04:49.629Z,0.10
2023-05-11T00:07:16.951Z,0.10
2023-05-11T00:09:44.335Z,0.20
2023-05-11T00:12:12.651Z,0.10
2023-05-11T00:14:40.410Z,0.10
2023-05-11T00:17:07.806Z,0.10
2023-05-11T00:19:35.150Z,0.10
2023-05-11T00:22:02.449Z,0.10
2023-05-11T00:24:30.060Z,0.20
2023-05-11T00:26:57.364Z,0.10
2023-05-11T00:29:24.680Z,0.20
2023-05-11T00:31:52.189Z,0.10
2023-05-11T00:34:19.694Z,0.10
2023-05-11T00:36:47.281Z,0.20
2023-05-11T00:39:14.662Z,0.10
2023-05-11T00:41:42.059Z,0.10
2023-05-11T00:44:09.411Z,0.10
2023-05-11T00:46:38.200Z,0.10
2023-05-11T00:49:05.598Z,0.10
2023-05-11T00:51:33.285Z,0.10
2023-05-11T00:54:01.163Z,0.10
2023-05-11T00:56:28.536Z,0.10
2023-05-11T00:58:55.921Z,0.10
2023-05-11T01:01:23.789Z,0.10
2023-05-11T01:03:51.256Z,0.20
2023-05-11T01:06:33.055Z,0.10
2023-05-11T01:09:19.268Z,0.20
2023-05-11T01:11:49.291Z,0.20
2023-05-11T01:14:17.358Z,0.20
2023-05-11T01:16:47.362Z,0.20
2023-05-11T01:19:33.444Z,0.10
2023-05-11T01:22:00.905Z,0.10
2023-05-11T01:24:47.352Z,0.20
2023-05-11T01:27:41.213Z,0.10
2023-05-11T01:30:25.956Z,0.10
2023-05-11T01:32:54.973Z,0.10
2023-05-11T01:35:23.160Z,0.20
2023-05-11T01:37:52.829Z,0.10
2023-05-11T01:40:22.215Z,0.10
2023-05-11T01:42:49.752Z,0.10
2023-05-11T01:45:17.140Z,0.10
2023-05-11T01:47:44.941Z,0.10
2023-05-11T01:50:12.394Z,0.10
2023-05-11T01:52:40.079Z,0.20
2023-05-11T01:55:07.780Z,0.10
2023-05-11T01:57:35.141Z,0.10
2023-05-11T02:00:02.695Z,0.10
2023-05-11T02:02:30.183Z,0.10
2023-05-11T02:04:58.948Z,0.10
2023-05-11T02:07:26.412Z,0.10
2023-05-11T02:10:06.664Z,0.10
2023-05-11T02:12:34.229Z,0.20
2023-05-11T02:15:01.544Z,0.10
2023-05-11T02:17:29.004Z,0.10
2023-05-11T02:19:56.862Z,0.10
2023-05-11T02:22:24.511Z,0.10
2023-05-11T02:24:51.922Z,0.20
2023-05-11T02:27:19.294Z,0.10
2023-05-11T02:29:46.729Z,0.10
2023-05-11T02:32:15.449Z,0.10
2023-05-11T02:34:43.797Z,0.20
2023-05-11T02:37:11.759Z,0.10
2023-05-11T02:39:39.143Z,0.10
2023-05-11T02:42:24.626Z,0.10
2023-05-11T02:44:54.511Z,0.10
2023-05-11T02:47:22.285Z,0.10
2023-05-11T02:49:53.843Z,0.10
2023-05-11T02:52:21.605Z,0.10
2023-05-11T02:54:49.818Z,0.10
2023-05-11T02:57:18.374Z,0.10
2023-05-11T02:59:46.510Z,0.10
2023-05-11T03:02:14.091Z,0.10
2023-05-11T03:04:41.648Z,0.10
2023-05-11T03:07:09.169Z,0.10
2023-05-11T03:09:36.549Z,0.10
2023-05-11T03:12:04.434Z,0.10
2023-05-11T03:14:33.026Z,0.10
2023-05-11T03:17:00.582Z,0.10
2023-05-11T03:19:28.845Z,0.20
2023-05-11T03:21:57.059Z,0.10
2023-05-11T03:24:24.477Z,0.20
2023-05-11T03:26:52.791Z,0.10
2023-05-11T03:29:20.168Z,0.10
2023-05-11T03:31:51.028Z,0.10
2023-05-11T03:34:18.734Z,0.10
2023-05-11T03:36:46.300Z,0.10
2023-05-11T03:39:13.686Z,0.10
2023-05-11T03:41:41.797Z,0.10
2023-05-11T03:44:09.576Z,0.10
2023-05-11T03:46:37.158Z,0.10
2023-05-11T03:49:05.705Z,0.10
2023-05-11T03:51:33.263Z,0.10
2023-05-11T03:54:00.713Z,0.10
2023-05-11T03:56:28.175Z,0.10
2023-05-11T03:58:55.760Z,0.10
2023-05-11T04:01:23.059Z,0.10
2023-05-11T04:03:51.187Z,0.10
2023-05-11T04:06:18.796Z,0.10
2023-05-11T04:08:46.147Z,0.10
2023-05-11T04:11:13.600Z,0.10
2023-05-11T04:13:41.061Z,0.20
2023-05-11T04:16:08.798Z,0.10
2023-05-11T04:18:36.392Z,0.10
2023-05-11T04:21:03.772Z,0.10
2023-05-11T04:23:31.224Z,0.10
2023-05-11T04:25:58.558Z,0.10
2023-05-11T04:28:28.081Z,0.10
2023-05-11T04:30:55.850Z,0.10
2023-05-11T04:33:23.357Z,0.20
2023-05-11T04:35:51.651Z,0.10
2023-05-11T04:38:19.343Z,0.10
2023-05-11T04:40:48.020Z,0.10
2023-05-11T04:43:15.657Z,0.10
2023-05-11T04:45:42.972Z,0.10
2023-05-11T04:48:10.494Z,0.10
2023-05-11T04:50:37.846Z,0.10
2023-05-11T04:53:05.124Z,0.10
2023-05-11T04:55:32.538Z,0.10
2023-05-11T04:57:59.785Z,0.10
2023-05-11T05:00:27.093Z,0.20
2023-05-11T05:02:54.437Z,0.10
2023-05-11T05:05:21.792Z,0.10
2023-05-11T05:07:49.152Z,0.10
2023-05-11T05:10:17.011Z,0.10
2023-05-11T05:12:44.518Z,0.10
2023-05-11T05:15:12.336Z,0.20
2023-05-11T05:17:39.758Z,0.10
2023-05-11T05:20:07.460Z,0.10
2023-05-11T05:22:34.980Z,0.10
2023-05-11T05:25:02.333Z,0.10
2023-05-11T05:27:29.640Z,0.10
2023-05-11T05:29:56.963Z,0.10
2023-05-11T05:32:24.312Z,0.10
2023-05-11T05:34:51.917Z,0.10
2023-05-11T05:37:19.307Z,0.10
2023-05-11T05:39:48.444Z,0.10
2023-05-11T05:42:16.015Z,0.10
2023-05-11T05:44:43.538Z,0.10
2023-05-11T05:47:10.900Z,0.10
2023-05-11T05:49:38.272Z,0.10
2023-05-11T05:52:05.667Z,0.00
2023-05-11T05:54:33.050Z,0.00
2023-05-11T05:57:00.589Z,0.10
2023-05-11T05:59:27.948Z,0.10
2023-05-11T06:01:55.266Z,0.10
2023-05-11T06:04:22.625Z,0.10
2023-05-11T06:06:50.094Z,0.10
2023-05-11T06:09:17.557Z,0.10
2023-05-11T06:11:44.833Z,0.10
2023-05-11T06:14:12.172Z,0.10
2023-05-11T06:16:39.534Z,0.10
2023-05-11T06:19:07.092Z,0.10
2023-05-11T06:21:34.442Z,0.00
2023-05-11T06:24:01.836Z,0.03
2023-05-11T06:26:29.261Z,0.10
2023-05-11T06:28:56.754Z,0.10
2023-05-11T06:31:24.618Z,0.00
2023-05-11T06:33:52.129Z,0.10
2023-05-11T06:36:19.439Z,0.00
2023-05-11T06:38:46.936Z,0.10
2023-05-11T06:41:14.488Z,0.10
2023-05-11T06:43:42.360Z,0.10
2023-05-11T06:46:10.358Z,0.10
2023-05-11T06:48:37.770Z,0.10
2023-05-11T06:51:05.262Z,0.10
2023-05-11T06:53:32.676Z,0.10
2023-05-11T06:56:00.053Z,0.00
2023-05-11T06:58:27.348Z,0.00
2023-05-11T07:00:54.817Z,0.07
2023-05-11T07:03:22.252Z,0.10
2023-05-11T07:05:49.608Z,0.00
2023-05-11T07:08:16.940Z,0.10
2023-05-11T07:10:44.288Z,0.10
2023-05-11T07:13:11.596Z,0.10
2023-05-11T07:15:39.101Z,0.10
2023-05-11T07:18:06.463Z,0.10
2023-05-11T07:20:36.631Z,0.10
2023-05-11T07:23:04.093Z,0.10
2023-05-11T07:25:31.440Z,0.10
2023-05-11T07:27:58.779Z,0.10
2023-05-11T07:30:26.422Z,0.00
2023-05-11T07:32:54.018Z,0.10
2023-05-11T07:35:22.846Z,0.10
2023-05-11T07:37:51.462Z,0.10
2023-05-11T07:40:18.988Z,0.10
2023-05-11T07:42:46.666Z,0.10
2023-05-11T07:45:14.011Z,0.10
2023-05-11T07:47:41.543Z,0.10
2023-05-11T07:50:09.164Z,0.10
2023-05-11T07:52:36.740Z,0.10
2023-05-11T07:55:04.198Z,0.10
2023-05-11T07:57:31.468Z,0.10
2023-05-11T07:59:58.809Z,0.10
2023-05-11T08:02:26.375Z,0.10
2023-05-11T08:04:53.856Z,0.10
2023-05-11T08:07:21.326Z,0.10
2023-05-11T08:09:48.712Z,0.10
2023-05-11T08:12:16.257Z,0.10
2023-05-11T08:14:43.677Z,0.10
2023-05-11T08:17:11.119Z,0.10
2023-05-11T08:19:38.581Z,0.10
2023-05-11T08:22:06.263Z,0.10
2023-05-11T08:24:33.636Z,0.10
2023-05-11T08:27:00.955Z,0.10
2023-05-11T08:29:28.353Z,0.10
2023-05-11T08:31:55.911Z,0.20
2023-05-11T08:34:23.988Z,0.10
2023-05-11T08:36:52.102Z,0.20
2023-05-11T08:39:38.574Z,0.20
2023-05-11T08:42:07.774Z,0.10
2023-05-11T08:44:37.877Z,0.10
2023-05-11T08:47:21.763Z,0.20
2023-05-11T08:49:51.853Z,0.10
2023-05-11T08:52:19.171Z,0.10
2023-05-11T08:54:48.923Z,0.10
2023-05-11T08:57:16.811Z,0.20
2023-05-11T08:59:46.152Z,0.20
2023-05-11T09:02:20.185Z,0.10
2023-05-11T09:04:48.999Z,0.10
2023-05-11T09:07:17.776Z,0.10
2023-05-11T09:09:46.462Z,0.20
2023-05-11T09:12:14.283Z,0.10
2023-05-11T09:14:41.639Z,0.10
2023-05-11T09:17:09.128Z,0.20
2023-05-11T09:19:36.598Z,0.20
2023-05-11T09:22:05.579Z,0.10
2023-05-11T09:24:33.343Z,0.10
2023-05-11T09:27:08.280Z,0.20
2023-05-11T09:29:35.677Z,0.20
2023-05-11T09:32:02.985Z,0.20
2023-05-11T09:34:30.333Z,0.20
2023-05-11T09:36:57.854Z,0.20
2023-05-11T09:39:42.140Z,0.20
2023-05-11T09:42:23.207Z,0.20
2023-05-11T09:44:50.572Z,0.20
2023-05-11T09:47:19.059Z,0.20
2023-05-11T09:49:47.249Z,0.20
2023-05-11T09:52:15.120Z,0.20
2023-05-11T09:54:49.795Z,0.20
2023-05-11T09:57:23.537Z,0.30
2023-05-11T09:59:50.966Z,0.20
2023-05-11T10:02:22.743Z,0.25
2023-05-11T10:04:50.902Z,0.20
2023-05-11T10:07:28.480Z,0.20
2023-05-11T10:09:56.619Z,0.20
2023-05-11T10:12:25.770Z,0.20
2023-05-11T10:14:55.142Z,0.20
2023-05-11T10:17:22.511Z,0.20
2023-05-11T10:19:49.988Z,0.30
2023-05-11T10:22:18.206Z,0.20
2023-05-11T10:24:45.788Z,0.20
2023-05-11T10:27:13.380Z,0.20
2023-05-11T10:29:40.910Z,0.20
2023-05-11T10:32:08.844Z,0.20
2023-05-11T10:34:36.275Z,0.20
2023-05-11T10:37:03.620Z,0.20
2023-05-11T10:39:31.047Z,0.20
2023-05-11T10:42:04.627Z,0.20
2023-05-11T10:44:40.732Z,0.20
2023-05-11T10:47:11.635Z,0.20
2023-05-11T10:49:57.816Z,0.20
2023-05-11T10:52:25.139Z,0.20
2023-05-11T10:54:52.514Z,0.20
2023-05-11T10:57:33.625Z,0.20
2023-05-11T11:00:19.631Z,0.20
2023-05-11T11:02:47.400Z,0.20
2023-05-11T11:05:18.052Z,0.20
2023-05-11T11:08:07.533Z,0.30
2023-05-11T11:10:34.983Z,0.20
2023-05-11T11:13:03.005Z,0.20
2023-05-11T11:15:49.231Z,0.20
2023-05-11T11:18:34.881Z,0.20
2023-05-11T11:21:02.428Z,0.20
2023-05-11T11:23:41.902Z,0.20
2023-05-11T11:26:10.168Z,0.20
2023-05-11T11:29:01.748Z,0.20
2023-05-11T11:31:30.022Z,0.20
2023-05-11T11:33:59.287Z,0.20
2023-05-11T11:36:45.480Z,0.20
2023-05-11T11:39:12.779Z,0.20
2023-05-11T11:41:40.083Z,0.20
2023-05-11T11:44:08.265Z,0.20
2023-05-11T11:46:35.687Z,0.20
2023-05-11T11:49:09.659Z,0.30
2023-05-11T11:51:40.738Z,0.30
2023-05-11T11:54:09.162Z,0.20
2023-05-11T11:56:40.202Z,0.20
2023-05-11T11:59:10.524Z,0.20
2023-05-11T12:01:39.609Z,0.20
2023-05-11T12:04:12.382Z,0.20
2023-05-11T12:06:40.349Z,0.20
2023-05-11T12:09:08.219Z,0.20
2023-05-11T12:11:35.738Z,0.20
2023-05-11T12:14:03.341Z,0.30
2023-05-11T12:16:32.366Z,0.20
2023-05-11T12:19:01.807Z,0.20
2023-05-11T12:21:30.211Z,0.30
2023-05-11T12:24:04.646Z,0.20
2023-05-11T12:26:32.406Z,0.20
2023-05-11T12:29:08.606Z,0.30
2023-05-11T12:31:42.188Z,0.20
2023-05-11T12:34:19.205Z,0.20
2023-05-11T12:36:47.057Z,0.20
2023-05-11T12:39:17.994Z,0.20
2023-05-11T12:41:45.375Z,0.20
2023-05-11T12:44:12.717Z,0.20
2023-05-11T12:46:40.152Z,0.20
2023-05-11T12:49:07.614Z,0.20
2023-05-11T12:51:53.899Z,0.20
2023-05-11T12:54:27.345Z,0.20
2023-05-11T12:56:54.712Z,0.20
2023-05-11T12:59:41.026Z,0.20
2023-05-11T13:02:08.359Z,0.20
2023-05-11T13:04:35.720Z,0.20
2023-05-11T13:07:03.568Z,0.20
2023-05-11T13:09:30.924Z,0.20
2023-05-11T13:12:29.580Z,0.20
2023-05-11T13:15:07.629Z,0.20
2023-05-11T13:17:35.938Z,0.20
2023-05-11T13:20:22.038Z,0.20
2023-05-11T13:22:49.793Z,0.20
2023-05-11T13:25:19.091Z,0.20
2023-05-11T13:27:46.838Z,0.20
2023-05-11T13:30:14.509Z,0.20
2023-05-11T13:32:41.869Z,0.20
2023-05-11T13:35:09.504Z,0.30
2023-05-11T13:37:36.912Z,0.20
2023-05-11T13:40:04.554Z,0.20
2023-05-11T13:42:32.639Z,0.20
2023-05-11T13:45:00.102Z,0.20
2023-05-11T13:47:27.564Z,0.20
2023-05-11T13:49:55.578Z,0.20
2023-05-11T13:52:22.891Z,0.20
2023-05-11T13:54:50.550Z,0.20
2023-05-11T13:57:17.888Z,0.20
2023-05-11T13:59:45.244Z,0.20
2023-05-11T14:02:12.884Z,0.20
2023-05-11T14:04:41.015Z,0.20
2023-05-11T14:07:08.340Z,0.20
2023-05-11T14:09:37.286Z,0.20
2023-05-11T14:12:04.842Z,0.20
2023-05-11T14:14:32.241Z,0.20
2023-05-11T14:16:59.589Z,0.20
2023-05-11T14:19:27.544Z,0.20
2023-05-11T14:21:55.020Z,0.20
2023-05-11T14:24:22.737Z,0.20
2023-05-11T14:26:50.066Z,0.20
2023-05-11T14:29:17.595Z,0.20
2023-05-11T14:31:45.528Z,0.30
2023-05-11T14:34:12.891Z,0.20
2023-05-11T14:36:40.517Z,0.20
2023-05-11T14:39:08.110Z,0.20
2023-05-11T14:41:36.063Z,0.20
2023-05-11T14:44:03.439Z,0.30
2023-05-11T14:46:30.901Z,0.20
2023-05-11T14:48:58.306Z,0.20
2023-05-11T14:51:25.800Z,0.20
2023-05-11T14:53:53.160Z,0.20
2023-05-11T14:56:20.672Z,0.20
2023-05-11T14:58:48.002Z,0.20
2023-05-11T15:01:15.482Z,0.20
2023-05-11T15:03:43.057Z,0.20
2023-05-11T15:06:10.438Z,0.20
2023-05-11T15:08:37.770Z,0.30
2023-05-11T15:11:05.133Z,0.30
2023-05-11T15:13:32.488Z,0.20
2023-05-11T15:15:59.898Z,0.20
2023-05-11T15:18:27.377Z,0.20
2023-05-11T15:20:54.951Z,0.20
2023-05-11T15:23:22.278Z,0.20
2023-05-11T15:25:49.665Z,0.20
2023-05-11T15:28:17.073Z,0.20
2023-05-11T15:30:44.481Z,0.20
2023-05-11T15:33:11.976Z,0.20
2023-05-11T15:35:39.399Z,0.20
2023-05-11T15:38:06.806Z,0.20
2023-05-11T15:40:34.138Z,0.20
2023-05-11T15:43:01.681Z,0.20
2023-05-11T15:45:29.645Z,0.20
2023-05-11T15:47:58.250Z,0.27
2023-05-11T15:50:25.919Z,0.20
2023-05-11T15:52:53.279Z,0.20
2023-05-11T15:55:20.676Z,0.20
2023-05-11T15:57:48.120Z,0.20
2023-05-11T16:00:16.622Z,0.20
2023-05-11T16:02:45.868Z,0.20
2023-05-11T16:05:13.373Z,0.20
2023-05-11T16:07:40.757Z,0.20
2023-05-11T16:10:08.348Z,0.20
2023-05-11T16:12:35.730Z,0.20
2023-05-11T16:15:03.035Z,0.30
2023-05-11T16:17:30.499Z,0.30
2023-05-11T16:19:59.636Z,0.30
2023-05-11T16:22:27.094Z,0.20
2023-05-11T16:24:54.420Z,0.20
2023-05-11T16:27:21.783Z,0.20
2023-05-11T16:29:49.103Z,0.20
2023-05-11T16:32:16.419Z,0.30
2023-05-11T16:34:43.796Z,0.20
2023-05-11T16:37:11.101Z,0.20
2023-05-11T16:39:38.573Z,0.20
2023-05-11T16:42:06.106Z,0.20
2023-05-11T16:44:33.540Z,0.20
2023-05-11T16:47:01.395Z,0.20
2023-05-11T16:49:29.148Z,0.20
2023-05-11T16:51:56.494Z,0.20
2023-05-11T16:54:24.133Z,0.20
2023-05-11T16:56:51.581Z,0.20
2023-05-11T16:59:18.974Z,0.20
2023-05-11T17:01:46.410Z,0.20
2023-05-11T17:04:14.217Z,0.30
2023-05-11T17:06:41.820Z,0.20
2023-05-11T17:09:09.574Z,0.20
2023-05-11T17:11:37.117Z,0.20
2023-05-11T17:14:04.459Z,0.30
2023-05-11T17:16:31.830Z,0.20
2023-05-11T17:18:59.929Z,0.30
2023-05-11T17:21:27.386Z,0.30
2023-05-11T17:23:54.787Z,0.30
2023-05-11T17:26:25.033Z,0.20
2023-05-11T17:28:55.376Z,0.20
2023-05-11T17:31:22.856Z,0.20
2023-05-11T17:33:50.430Z,0.20
2023-05-11T17:36:18.778Z,0.30
2023-05-11T17:38:46.113Z,0.20
2023-05-11T17:41:14.001Z,0.20
2023-05-11T17:43:41.362Z,0.20
2023-05-11T17:46:08.820Z,0.20
2023-05-11T17:48:36.393Z,0.20
2023-05-11T17:51:03.734Z,0.20
2023-05-11T17:53:31.198Z,0.30
2023-05-11T17:55:59.078Z,0.20
2023-05-11T17:58:26.849Z,0.20
2023-05-11T18:00:54.342Z,0.20
2023-05-11T18:03:22.220Z,0.20
2023-05-11T18:05:49.732Z,0.20
2023-05-11T18:08:17.361Z,0.30
2023-05-11T18:10:44.930Z,0.30
2023-05-11T18:13:13.110Z,0.20
2023-05-11T18:15:40.722Z,0.20
2023-05-11T18:18:08.186Z,0.30
2023-05-11T18:20:37.216Z,0.30
2023-05-11T18:23:04.741Z,0.20
2023-05-11T18:25:32.303Z,0.30
2023-05-11T18:27:59.647Z,0.30
2023-05-11T18:30:28.798Z,0.30
2023-05-11T18:32:56.474Z,0.20
2023-05-11T18:35:23.776Z,0.30
2023-05-11T18:37:51.323Z,0.20
2023-05-11T18:40:18.928Z,0.30
2023-05-11T18:42:49.553Z,0.30
2023-05-11T18:45:17.339Z,0.30
2023-05-11T18:47:46.458Z,0.20
2023-05-11T18:50:14.139Z,0.30
2023-05-11T18:52:41.657Z,0.20
2023-05-11T18:55:10.227Z,0.30
2023-05-11T18:57:39.563Z,0.20
2023-05-11T19:00:07.483Z,0.20
2023-05-11T19:02:35.145Z,0.20
2023-05-11T19:05:02.555Z,0.20
2023-05-11T19:07:29.938Z,0.20
2023-05-11T19:09:57.914Z,0.20
2023-05-11T19:12:25.333Z,0.30
2023-05-11T19:14:56.326Z,0.20
2023-05-11T19:17:24.185Z,0.30
2023-05-11T19:19:52.203Z,0.20
2023-05-11T19:22:21.494Z,0.30
2023-05-11T19:24:48.816Z,0.20
2023-05-11T19:27:16.251Z,0.20
2023-05-11T19:29:43.798Z,0.30
2023-05-11T19:32:11.395Z,0.30
2023-05-11T19:34:38.871Z,0.20
2023-05-11T19:37:07.179Z,0.20
2023-05-11T19:39:34.561Z,0.20
2023-05-11T19:42:02.007Z,0.20
2023-05-11T19:44:33.091Z,0.20
2023-05-11T19:47:00.492Z,0.20
2023-05-11T19:49:28.822Z,0.30
2023-05-11T19:51:56.478Z,0.20
2023-05-11T19:54:23.888Z,0.20
2023-05-11T19:56:51.231Z,0.20
2023-05-11T19:59:19.575Z,0.20
2023-05-11T20:01:47.018Z,0.20
2023-05-11T20:04:15.081Z,0.20
2023-05-11T20:06:42.472Z,0.30
2023-05-11T20:09:09.859Z,0.20
2023-05-11T20:11:37.143Z,0.20
2023-05-11T20:14:06.011Z,0.30
2023-05-11T20:16:33.421Z,0.20
2023-05-11T20:19:01.118Z,0.30
2023-05-11T20:21:28.983Z,0.30
2023-05-11T20:23:56.756Z,0.20
2023-05-11T20:26:24.445Z,0.20
2023-05-11T20:28:51.897Z,0.20
2023-05-11T20:31:21.809Z,0.20
2023-05-11T20:36:19.502Z,0.20
2023-05-11T20:38:46.912Z,0.20
2023-05-11T20:41:14.554Z,0.20
2023-05-11T20:43:41.959Z,0.20
2023-05-11T20:46:09.448Z,0.20
2023-05-11T20:48:40.891Z,0.20
2023-05-11T20:51:09.175Z,0.20
2023-05-11T20:53:36.535Z,0.20
2023-05-11T20:56:03.872Z,0.20
2023-05-11T20:58:31.793Z,0.20
2023-05-11T21:00:59.602Z,0.10
2023-05-11T21:03:27.797Z,0.20
2023-05-11T21:05:55.241Z,0.20
2023-05-11T21:08:22.555Z,0.10
2023-05-11T21:10:49.893Z,0.30
2023-05-11T21:13:17.226Z,0.20
2023-05-11T21:15:44.590Z,0.20
2023-05-11T21:18:11.961Z,0.20
2023-05-11T21:20:39.530Z,0.20
2023-05-11T21:23:06.843Z,0.20
2023-05-11T21:25:34.099Z,0.20
2023-05-11T21:28:01.556Z,0.10
2023-05-11T21:30:29.619Z,0.10
2023-05-11T21:32:57.032Z,0.20
2023-05-11T21:35:24.854Z,0.20
2023-05-11T21:37:52.516Z,0.17
2023-05-11T21:40:20.128Z,0.10
2023-05-11T21:42:47.723Z,0.20
2023-05-11T21:45:15.496Z,0.20
2023-05-11T21:47:42.805Z,0.10
2023-05-11T21:50:11.268Z,0.10
2023-05-11T21:52:38.617Z,0.10
2023-05-11T21:55:07.147Z,0.20
2023-05-11T21:57:34.525Z,0.20
2023-05-11T22:00:02.024Z,0.10
2023-05-11T22:02:29.966Z,0.10
2023-05-11T22:04:57.600Z,0.20
2023-05-11T22:07:25.072Z,0.20
2023-05-11T22:09:52.394Z,0.10
2023-05-11T22:12:19.930Z,0.10
2023-05-11T22:14:48.654Z,0.10
2023-05-11T22:17:18.199Z,0.10
2023-05-11T22:19:45.783Z,0.10
2023-05-11T22:22:13.180Z,0.10
2023-05-11T22:24:40.583Z,0.10
2023-05-11T22:27:10.131Z,0.10
2023-05-11T22:29:37.591Z,0.10
2023-05-11T22:32:05.054Z,0.10
2023-05-11T22:34:32.472Z,0.10
2023-05-11T22:37:01.476Z,0.10
2023-05-11T22:39:29.413Z,0.10
2023-05-11T22:41:56.898Z,0.10
2023-05-11T22:44:24.274Z,0.10
2023-05-11T22:46:51.982Z,0.10
2023-05-11T22:49:19.346Z,0.10
2023-05-11T22:51:46.960Z,0.10
2023-05-11T22:54:16.021Z,0.10
2023-05-11T22:56:43.422Z,0.10
2023-05-11T22:59:10.917Z,0.10
2023-05-11T23:01:38.513Z,0.10
2023-05-11T23:04:05.974Z,0.10
2023-05-11T23:06:33.284Z,0.10
2023-05-11T23:09:00.620Z,0.10
2023-05-11T23:11:28.007Z,0.20
2023-05-11T23:13:55.357Z,0.10
2023-05-11T23:16:22.680Z,0.10
2023-05-11T23:18:50.126Z,0.10
2023-05-11T23:21:17.990Z,0.10
2023-05-11T23:23:45.495Z,0.10
2023-05-11T23:26:13.931Z,0.10
2023-05-11T23:28:41.650Z,0.10
2023-05-11T23:31:09.069Z,0.10
2023-05-11T23:33:36.549Z,0.10
2023-05-11T23:36:03.877Z,0.20
2023-05-11T23:38:31.152Z,0.10
2023-05-11T23:40:59.464Z,0.10
2023-05-11T23:43:28.316Z,0.10
2023-05-11T23:45:57.686Z,0.10
2023-05-11T23:48:25.239Z,0.10
2023-05-11T23:50:52.599Z,0.10
2023-05-11T23:53:19.963Z,0.20
2023-05-11T23:55:50.441Z,0.10
2023-05-11T23:58:17.792Z,0.10
